createdAt,value
2022-10-17T00:00:22.951Z,10.68
2022-10-17T00:02:50.657Z,14.23
2022-10-17T00:05:18.361Z,15.55
2022-10-17T00:07:46.026Z,14.98
2022-10-17T00:10:15.073Z,17.20
2022-10-17T00:12:42.757Z,16.75
2022-10-17T00:15:12.358Z,13.38
2022-10-17T00:17:39.996Z,12.25
2022-10-17T00:20:08.835Z,14.07
2022-10-17T00:25:09.605Z,12.68
2022-10-17T00:27:39.404Z,15.82
2022-10-17T00:30:09.266Z,16.45
2022-10-17T00:32:37.019Z,12.57
2022-10-17T00:35:05.249Z,16.25
2022-10-17T00:37:33.354Z,17.83
2022-10-17T00:40:01.063Z,11.02
2022-10-17T00:42:29.016Z,16.30
2022-10-17T00:45:18.911Z,12.00
2022-10-17T00:47:49.662Z,17.95
2022-10-17T00:50:17.612Z,18.08
2022-10-17T00:52:46.988Z,14.95
2022-10-17T00:55:17.646Z,15.13
2022-10-17T00:57:47.022Z,21.08
2022-10-17T01:00:17.306Z,17.15
2022-10-17T01:02:45.464Z,12.02
2022-10-17T01:05:13.954Z,19.58
2022-10-17T01:07:43.430Z,18.15
2022-10-17T01:10:12.234Z,17.98
2022-10-17T01:12:56.045Z,18.58
2022-10-17T01:15:37.506Z,15.95
2022-10-17T01:18:14.124Z,18.70
2022-10-17T01:21:02.781Z,20.90
2022-10-17T01:23:54.428Z,16.52
2022-10-17T01:26:31.838Z,15.63
2022-10-17T01:29:30.463Z,16.58
2022-10-17T01:32:03.324Z,13.82
2022-10-17T01:34:35.969Z,13.52
2022-10-17T01:37:06.698Z,13.07
2022-10-17T01:39:45.467Z,18.83
2022-10-17T01:42:20.589Z,15.18
2022-10-17T01:44:55.508Z,13.80
2022-10-17T01:47:27.887Z,16.98
2022-10-17T01:50:00.478Z,15.10
2022-10-17T01:54:59.744Z,16.83
2022-10-17T01:57:33.049Z,11.82
2022-10-17T02:00:03.433Z,15.18
2022-10-17T02:02:33.062Z,14.27
2022-10-17T02:05:03.707Z,14.80
2022-10-17T02:07:31.452Z,14.63
2022-10-17T02:09:59.141Z,13.95
2022-10-17T02:12:39.400Z,13.27
2022-10-17T02:15:24.074Z,13.32
2022-10-17T02:18:02.149Z,13.98
2022-10-17T02:20:34.089Z,15.90
2022-10-17T02:23:10.432Z,15.95
2022-10-17T02:25:46.051Z,16.25
2022-10-17T02:28:21.721Z,13.95
2022-10-17T02:30:55.983Z,13.70
2022-10-17T02:33:30.265Z,14.55
2022-10-17T02:36:02.993Z,14.50
2022-10-17T02:38:32.746Z,13.32
2022-10-17T02:41:01.494Z,12.52
2022-10-17T02:43:29.745Z,12.10
2022-10-17T02:45:58.140Z,14.63
2022-10-17T02:48:33.413Z,13.00
2022-10-17T02:51:08.459Z,13.93
2022-10-17T02:53:40.859Z,12.50
2022-10-17T02:58:47.463Z,14.60
2022-10-17T03:03:44.266Z,12.32
2022-10-17T03:06:11.998Z,11.48
2022-10-17T03:08:39.662Z,13.43
2022-10-17T03:11:07.646Z,13.45
2022-10-17T03:13:38.913Z,19.08
2022-10-17T03:16:07.827Z,17.00
2022-10-17T03:18:35.471Z,15.60
2022-10-17T03:21:04.492Z,13.15
2022-10-17T03:23:32.110Z,12.88
2022-10-17T03:25:59.707Z,14.70
2022-10-17T03:28:27.842Z,11.77
2022-10-17T03:30:55.502Z,14.13
2022-10-17T03:33:23.190Z,11.77
2022-10-17T03:35:50.993Z,15.23
2022-10-17T03:38:23.334Z,13.95
2022-10-17T03:40:56.278Z,12.80
2022-10-17T03:43:23.919Z,16.75
2022-10-17T03:45:51.575Z,11.95
2022-10-17T03:48:19.243Z,12.45
2022-10-17T03:50:46.862Z,12.90
2022-10-17T03:53:14.519Z,13.50
2022-10-17T03:55:43.517Z,13.10
2022-10-17T03:58:11.155Z,11.02
2022-10-17T04:00:38.922Z,11.77
2022-10-17T04:03:06.582Z,10.85
2022-10-17T04:05:34.199Z,14.18
2022-10-17T04:08:04.656Z,12.73
2022-10-17T04:10:32.702Z,11.98
2022-10-17T04:13:01.695Z,11.55
2022-10-17T04:15:29.342Z,10.77
2022-10-17T04:17:56.982Z,10.50
2022-10-17T04:20:24.666Z,11.00
2022-10-17T04:22:52.272Z,10.85
2022-10-17T04:25:19.966Z,10.10
2022-10-17T04:27:48.982Z,12.68
2022-10-17T04:30:18.274Z,11.13
2022-10-17T04:32:45.943Z,10.40
2022-10-17T04:35:13.631Z,11.48
2022-10-17T04:37:41.237Z,10.55
2022-10-17T04:40:10.320Z,9.57
2022-10-17T04:42:37.985Z,9.63
2022-10-17T04:45:06.610Z,11.80
2022-10-17T04:47:35.662Z,12.13
2022-10-17T04:50:04.162Z,10.57
2022-10-17T04:52:32.338Z,14.07
2022-10-17T04:55:00.144Z,11.60
2022-10-17T04:57:27.767Z,9.77
2022-10-17T04:59:55.471Z,12.68
2022-10-17T05:02:23.271Z,9.68
2022-10-17T05:04:52.255Z,10.70
2022-10-17T05:07:19.944Z,12.05
2022-10-17T05:09:47.569Z,8.82
2022-10-17T05:12:15.188Z,9.50
2022-10-17T05:14:42.799Z,11.63
2022-10-17T05:17:10.411Z,10.32
2022-10-17T05:19:38.042Z,9.88
2022-10-17T05:22:07.555Z,9.70
2022-10-17T05:24:35.236Z,10.18
2022-10-17T05:27:02.848Z,10.63
2022-10-17T05:29:30.521Z,9.73
2022-10-17T05:31:58.214Z,10.25
2022-10-17T05:34:26.063Z,8.25
2022-10-17T05:36:53.689Z,10.55
2022-10-17T05:39:23.357Z,11.50
2022-10-17T05:41:52.366Z,9.05
2022-10-17T05:44:20.034Z,11.18
2022-10-17T05:46:49.543Z,11.48
2022-10-17T05:49:32.207Z,9.20
2022-10-17T05:52:00.953Z,13.23
2022-10-17T05:54:29.973Z,10.55
2022-10-17T05:56:57.919Z,17.92
2022-10-17T05:59:26.428Z,10.75
2022-10-17T06:01:54.261Z,14.60
2022-10-17T06:04:22.197Z,10.95
2022-10-17T06:06:50.237Z,14.02
2022-10-17T06:09:17.999Z,11.43
2022-10-17T06:11:47.027Z,10.98
2022-10-17T06:14:14.750Z,13.13
2022-10-17T06:16:43.387Z,10.77
2022-10-17T06:19:11.858Z,10.65
2022-10-17T06:21:39.583Z,12.02
2022-10-17T06:24:07.345Z,10.43
2022-10-17T06:26:34.976Z,9.68
2022-10-17T06:29:04.424Z,10.80
2022-10-17T06:31:32.133Z,9.98
2022-10-17T06:33:59.839Z,10.45
2022-10-17T06:36:27.452Z,12.50
2022-10-17T06:38:55.170Z,10.27
2022-10-17T06:41:22.764Z,9.32
2022-10-17T06:43:50.790Z,12.30
2022-10-17T06:46:20.354Z,9.15
2022-10-17T06:48:48.143Z,7.60
2022-10-17T06:51:15.780Z,12.95
2022-10-17T06:53:43.446Z,11.15
2022-10-17T06:56:11.803Z,9.95
2022-10-17T06:58:40.695Z,8.07
2022-10-17T07:01:09.966Z,11.82
2022-10-17T07:03:40.129Z,10.82
2022-10-17T07:06:08.435Z,10.10
2022-10-17T07:08:36.078Z,11.63
2022-10-17T07:11:10.802Z,11.60
2022-10-17T07:13:39.376Z,11.35
2022-10-17T07:16:07.948Z,8.80
2022-10-17T07:18:35.859Z,8.65
2022-10-17T07:21:05.704Z,9.95
2022-10-17T07:23:36.490Z,9.65
2022-10-17T07:26:07.183Z,10.68
2022-10-17T07:28:35.243Z,9.18
2022-10-17T07:31:07.017Z,12.80
2022-10-17T07:33:35.077Z,8.48
2022-10-17T07:36:05.588Z,11.75
2022-10-17T07:38:33.290Z,8.65
2022-10-17T07:41:02.963Z,10.48
2022-10-17T07:43:31.562Z,11.60
2022-10-17T07:45:59.956Z,8.05
2022-10-17T07:48:27.735Z,6.78
2022-10-17T07:50:55.354Z,9.13
2022-10-17T07:53:24.483Z,7.97
2022-10-17T07:55:52.148Z,9.90
2022-10-17T07:58:19.972Z,9.77
2022-10-17T08:00:49.052Z,9.40
2022-10-17T08:03:16.782Z,8.07
2022-10-17T08:05:44.404Z,8.65
2022-10-17T08:08:12.016Z,7.03
2022-10-17T08:10:41.159Z,9.18
2022-10-17T08:13:09.230Z,8.25
2022-10-17T08:15:38.507Z,5.55
2022-10-17T08:18:06.198Z,9.88
2022-10-17T08:20:33.866Z,9.32
2022-10-17T08:23:01.657Z,7.45
2022-10-17T08:25:29.493Z,7.15
2022-10-17T08:27:59.118Z,8.98
2022-10-17T08:30:26.946Z,9.82
2022-10-17T08:32:55.997Z,6.47
2022-10-17T08:35:23.798Z,11.43
2022-10-17T08:37:51.447Z,16.10
2022-10-17T08:40:23.387Z,7.50
2022-10-17T08:43:07.160Z,6.68
2022-10-17T08:45:38.906Z,7.50
2022-10-17T08:48:12.050Z,6.43
2022-10-17T08:50:43.872Z,7.47
2022-10-17T08:53:19.909Z,6.75
2022-10-17T08:55:49.456Z,7.60
2022-10-17T08:58:21.083Z,8.20
2022-10-17T09:00:54.210Z,6.32
2022-10-17T09:03:39.682Z,8.35
2022-10-17T09:06:15.996Z,6.90
2022-10-17T09:08:52.851Z,9.15
2022-10-17T09:11:43.439Z,8.77
2022-10-17T09:14:29.991Z,8.38
2022-10-17T09:17:09.726Z,9.98
2022-10-17T09:19:40.447Z,9.05
2022-10-17T09:22:12.845Z,9.82
2022-10-17T09:27:19.969Z,13.30
2022-10-17T09:29:52.060Z,13.20
2022-10-17T09:32:23.835Z,12.77
2022-10-17T09:35:00.214Z,12.70
2022-10-17T09:37:34.024Z,12.05
2022-10-17T09:40:01.748Z,12.45
2022-10-17T09:42:30.088Z,15.38
2022-10-17T09:45:19.248Z,13.43
2022-10-17T09:47:53.402Z,12.38
2022-10-17T09:50:28.319Z,10.15
2022-10-17T09:52:58.428Z,9.02
2022-10-17T09:55:35.646Z,8.85
2022-10-17T09:58:05.890Z,12.55
2022-10-17T10:00:37.985Z,10.68
2022-10-17T10:03:18.604Z,13.27
2022-10-17T10:06:00.909Z,12.23
2022-10-17T10:08:31.177Z,10.82
2022-10-17T10:11:03.243Z,13.77
2022-10-17T10:13:32.402Z,16.13
2022-10-17T10:16:18.124Z,11.50
2022-10-17T10:18:48.664Z,14.13
2022-10-17T10:21:20.750Z,13.32
2022-10-17T10:24:04.828Z,10.38
2022-10-17T10:26:37.198Z,11.70
2022-10-17T10:31:39.152Z,16.38
2022-10-17T10:34:19.916Z,8.90
2022-10-17T10:36:54.619Z,10.77
2022-10-17T10:39:33.607Z,11.45
2022-10-17T10:42:02.451Z,11.52
2022-10-17T10:44:32.869Z,17.25
2022-10-17T10:47:20.616Z,16.15
2022-10-17T10:49:48.946Z,18.25
2022-10-17T10:52:31.087Z,12.70
2022-10-17T10:55:08.101Z,12.02
2022-10-17T10:57:39.069Z,13.27
2022-10-17T11:00:15.839Z,14.95
2022-10-17T11:02:52.920Z,10.70
2022-10-17T11:05:25.679Z,12.38
2022-10-17T11:08:01.028Z,15.38
2022-10-17T11:10:37.985Z,11.65
2022-10-17T11:13:11.977Z,13.05
2022-10-17T11:15:46.914Z,13.18
2022-10-17T11:18:25.406Z,14.95
2022-10-17T11:20:58.174Z,17.52
2022-10-17T11:23:31.479Z,21.35
2022-10-17T11:26:06.697Z,26.95
2022-10-17T11:28:34.512Z,20.38
2022-10-17T11:31:07.235Z,14.52
2022-10-17T11:33:47.250Z,15.73
2022-10-17T11:36:18.000Z,13.48
2022-10-17T11:38:50.023Z,13.18
2022-10-17T11:41:23.179Z,12.35
2022-10-17T11:43:56.125Z,12.95
2022-10-17T11:46:25.177Z,15.00
2022-10-17T11:49:05.193Z,18.05
2022-10-17T11:54:35.021Z,13.43
2022-10-17T11:57:18.446Z,16.27
2022-10-17T12:00:35.821Z,15.95
2022-10-17T12:03:18.867Z,15.23
2022-10-17T12:05:53.668Z,17.02
2022-10-17T12:08:29.133Z,17.40
2022-10-17T12:11:05.077Z,14.50
2022-10-17T12:13:51.553Z,15.68
2022-10-17T12:16:46.096Z,13.73
2022-10-17T12:19:26.503Z,18.52
2022-10-17T12:22:01.573Z,21.58
2022-10-17T12:24:36.168Z,32.05
2022-10-17T12:27:23.324Z,22.02
2022-10-17T12:29:51.579Z,20.38
2022-10-17T12:32:19.327Z,19.60
2022-10-17T12:34:54.011Z,17.60
2022-10-17T12:37:58.653Z,21.60
2022-10-17T12:40:53.466Z,15.43
2022-10-17T12:46:44.929Z,12.60
2022-10-17T12:49:31.334Z,13.80
2022-10-17T12:52:23.919Z,13.38
2022-10-17T12:55:13.920Z,13.07
2022-10-17T12:57:50.273Z,14.13
2022-10-17T13:00:23.000Z,10.55
2022-10-17T13:02:56.851Z,11.75
2022-10-17T13:05:30.386Z,14.27
2022-10-17T13:08:00.364Z,11.18
2022-10-17T13:10:30.920Z,14.70
2022-10-17T13:13:07.719Z,10.35
2022-10-17T13:15:37.355Z,13.95
2022-10-17T13:18:05.800Z,10.52
2022-10-17T13:20:33.918Z,12.05
2022-10-17T13:23:02.006Z,9.27
2022-10-17T13:25:29.996Z,11.52
2022-10-17T13:28:14.633Z,8.23
2022-10-17T13:30:49.628Z,9.18
2022-10-17T13:33:30.049Z,8.38
2022-10-17T13:36:01.327Z,7.30
2022-10-17T13:38:32.501Z,10.03
2022-10-17T13:41:16.581Z,10.35
2022-10-17T13:43:51.456Z,8.10
2022-10-17T13:46:39.251Z,9.55
2022-10-17T13:49:16.606Z,9.20
2022-10-17T13:51:46.375Z,7.88
2022-10-17T13:54:33.842Z,9.00
2022-10-17T13:57:02.882Z,10.50
2022-10-17T13:59:37.962Z,8.38
2022-10-17T14:02:12.438Z,11.57
2022-10-17T14:05:04.124Z,10.60
2022-10-17T14:07:58.115Z,7.45
2022-10-17T14:10:27.370Z,8.13
2022-10-17T14:12:56.404Z,8.13
2022-10-17T14:15:28.040Z,7.28
2022-10-17T14:17:59.098Z,8.13
2022-10-17T14:23:35.457Z,5.95
2022-10-17T14:26:09.288Z,7.80
2022-10-17T14:28:37.357Z,5.85
2022-10-17T14:31:25.448Z,7.43
2022-10-17T14:33:54.743Z,9.98
2022-10-17T14:36:32.735Z,7.57
2022-10-17T14:39:01.915Z,7.80
2022-10-17T14:41:48.597Z,8.70
2022-10-17T14:44:22.446Z,8.32
2022-10-17T14:46:55.094Z,9.48
2022-10-17T14:49:29.035Z,9.30
2022-10-17T14:52:28.373Z,7.35
2022-10-17T14:54:57.837Z,8.98
2022-10-17T14:57:28.990Z,9.65
2022-10-17T14:59:57.581Z,10.98
2022-10-17T15:02:30.087Z,8.77
2022-10-17T15:04:58.398Z,8.80
2022-10-17T15:07:26.272Z,12.55
2022-10-17T15:09:54.867Z,9.52
2022-10-17T15:12:24.782Z,7.22
2022-10-17T15:14:52.866Z,7.85
2022-10-17T15:17:23.362Z,5.70
2022-10-17T15:19:52.422Z,8.82
2022-10-17T15:22:20.153Z,8.85
2022-10-17T15:24:48.009Z,8.32
2022-10-17T15:27:17.435Z,7.53
2022-10-17T15:29:45.746Z,10.68
2022-10-17T15:32:13.700Z,11.63
2022-10-17T15:34:41.664Z,9.52
2022-10-17T15:37:17.825Z,10.50
2022-10-17T15:39:47.971Z,9.50
2022-10-17T15:42:15.645Z,9.35
2022-10-17T15:44:44.473Z,9.10
2022-10-17T15:47:23.361Z,9.23
2022-10-17T15:49:51.313Z,6.63
2022-10-17T15:52:20.541Z,8.20
2022-10-17T15:54:48.338Z,8.57
2022-10-17T15:57:19.360Z,8.63
2022-10-17T15:59:48.007Z,8.95
2022-10-17T16:02:16.860Z,7.53
2022-10-17T16:04:45.378Z,7.55
2022-10-17T16:07:13.056Z,11.63
2022-10-17T16:09:42.119Z,10.27
2022-10-17T16:12:14.348Z,8.40
2022-10-17T16:14:42.145Z,8.65
2022-10-17T16:17:13.826Z,10.60
2022-10-17T16:19:41.601Z,46.67
2022-10-17T16:22:19.184Z,12.05
2022-10-17T16:24:48.266Z,12.15
2022-10-17T16:27:15.943Z,13.27
2022-10-17T16:29:43.667Z,7.80
2022-10-17T16:32:11.506Z,8.82
2022-10-17T16:34:39.167Z,9.80
2022-10-17T16:37:06.806Z,9.93
2022-10-17T16:39:37.500Z,10.32
2022-10-17T16:42:06.605Z,8.05
2022-10-17T16:44:34.324Z,10.40
2022-10-17T16:47:02.040Z,10.90
2022-10-17T16:49:29.719Z,10.43
2022-10-17T16:51:57.389Z,8.98
2022-10-17T16:54:25.050Z,12.57
2022-10-17T16:56:52.820Z,16.52
2022-10-17T16:59:22.109Z,9.95
2022-10-17T17:01:49.834Z,9.57
2022-10-17T17:04:17.713Z,9.60
2022-10-17T17:09:18.183Z,9.65
2022-10-17T17:11:45.837Z,10.90
2022-10-17T17:14:14.399Z,11.15
2022-10-17T17:16:44.240Z,10.30
2022-10-17T17:19:14.108Z,13.05
2022-10-17T17:21:47.537Z,10.63
2022-10-17T17:24:15.434Z,9.82
2022-10-17T17:26:43.183Z,11.73
2022-10-17T17:29:11.811Z,11.73
2022-10-17T17:31:39.757Z,13.23
2022-10-17T17:34:09.677Z,15.90
2022-10-17T17:36:39.266Z,27.08
2022-10-17T17:39:09.025Z,15.40
2022-10-17T17:41:36.801Z,13.48
2022-10-17T17:44:12.413Z,13.95
2022-10-17T17:46:43.624Z,13.50
2022-10-17T17:49:12.741Z,14.60
2022-10-17T17:51:41.478Z,14.80
2022-10-17T17:54:11.486Z,15.05
2022-10-17T17:56:39.784Z,15.80
2022-10-17T17:59:07.763Z,15.40
2022-10-17T18:01:38.803Z,15.23
2022-10-17T18:04:08.565Z,14.52
2022-10-17T18:06:38.814Z,12.10
2022-10-17T18:09:07.546Z,12.30
2022-10-17T18:11:36.446Z,14.55
2022-10-17T18:14:06.671Z,13.50
2022-10-17T18:16:36.227Z,13.15
2022-10-17T18:19:07.228Z,13.82
2022-10-17T18:21:40.771Z,14.10
2022-10-17T18:24:08.875Z,13.13
2022-10-17T18:26:36.953Z,12.50
2022-10-17T18:29:05.358Z,13.02
2022-10-17T18:31:45.545Z,11.27
2022-10-17T18:34:13.245Z,10.55
2022-10-17T18:36:42.376Z,14.80
2022-10-17T18:39:10.079Z,11.50
2022-10-17T18:41:38.082Z,9.38
2022-10-17T18:44:05.902Z,10.75
2022-10-17T18:46:40.388Z,12.18
2022-10-17T18:49:08.725Z,11.18
2022-10-17T18:51:39.293Z,12.52
2022-10-17T18:54:12.420Z,12.07
2022-10-17T18:56:40.628Z,13.57
2022-10-17T18:59:08.327Z,11.77
2022-10-17T19:01:36.115Z,13.57
2022-10-17T19:04:03.849Z,13.88
2022-10-17T19:06:33.276Z,12.45
2022-10-17T19:09:02.235Z,12.93
2022-10-17T19:11:32.998Z,10.77
2022-10-17T19:14:02.893Z,11.43
2022-10-17T19:16:32.386Z,14.45
2022-10-17T19:19:02.935Z,16.60
2022-10-17T19:21:30.656Z,11.15
2022-10-17T19:24:02.032Z,14.73
2022-10-17T19:26:34.899Z,13.30
2022-10-17T19:29:03.112Z,11.35
2022-10-17T19:31:32.485Z,13.35
2022-10-17T19:34:03.573Z,11.77
2022-10-17T19:36:33.922Z,13.65
2022-10-17T19:39:08.473Z,12.05
2022-10-17T19:41:37.570Z,10.35
2022-10-17T19:44:05.282Z,12.95
2022-10-17T19:46:34.477Z,12.57
2022-10-17T19:49:02.926Z,13.50
2022-10-17T19:51:31.408Z,28.40
2022-10-17T19:54:01.239Z,15.68
2022-10-17T19:56:30.659Z,14.10
2022-10-17T19:59:03.203Z,13.00
2022-10-17T20:01:34.307Z,11.70
2022-10-17T20:04:02.458Z,10.93
2022-10-17T20:06:30.260Z,10.13
2022-10-17T20:08:58.008Z,11.35
2022-10-17T20:11:27.558Z,9.85
2022-10-17T20:13:55.732Z,11.82
2022-10-17T20:16:27.130Z,10.95
2022-10-17T20:18:56.924Z,9.65
2022-10-17T20:21:27.254Z,10.48
2022-10-17T20:23:56.474Z,9.32
2022-10-17T20:26:37.022Z,10.38
2022-10-17T20:29:13.042Z,10.77
2022-10-17T20:31:44.085Z,11.75
2022-10-17T20:34:14.790Z,10.88
2022-10-17T20:36:42.823Z,12.40
2022-10-17T20:39:12.215Z,11.55
2022-10-17T20:41:39.945Z,9.13
2022-10-17T20:44:07.932Z,8.32
2022-10-17T20:46:38.311Z,10.25
2022-10-17T20:49:15.373Z,6.95
2022-10-17T20:51:43.176Z,6.80
2022-10-17T20:54:13.690Z,8.45
2022-10-17T20:56:41.450Z,9.52
2022-10-17T20:59:13.536Z,5.75
2022-10-17T21:01:41.330Z,5.55
2022-10-17T21:04:40.487Z,7.35
2022-10-17T21:06:58.492Z,8.27
2022-10-17T21:09:26.484Z,7.53
2022-10-17T21:11:55.638Z,5.15
2022-10-17T21:14:24.211Z,7.30
2022-10-17T21:16:53.124Z,5.30
2022-10-17T21:19:22.761Z,5.55
2022-10-17T21:21:51.126Z,4.65
2022-10-17T21:24:20.512Z,6.15
2022-10-17T21:26:50.030Z,4.60
2022-10-17T21:29:17.759Z,5.40
2022-10-17T21:31:46.147Z,5.88
2022-10-17T21:34:17.451Z,5.55
2022-10-17T21:36:46.796Z,5.93
2022-10-17T21:39:15.829Z,4.82
2022-10-17T21:41:44.500Z,6.40
2022-10-17T21:44:15.355Z,4.75
2022-10-17T21:46:43.461Z,4.80
2022-10-17T21:49:12.507Z,6.38
2022-10-17T21:51:41.193Z,5.70
2022-10-17T21:54:10.284Z,6.75
2022-10-17T21:56:38.278Z,5.18
2022-10-17T21:59:06.869Z,5.35
2022-10-17T22:01:36.904Z,5.38
2022-10-17T22:04:06.538Z,8.00
2022-10-17T22:06:40.197Z,6.80
2022-10-17T22:09:13.002Z,4.95
2022-10-17T22:11:41.174Z,7.82
2022-10-17T22:14:12.998Z,4.38
2022-10-17T22:16:40.696Z,7.88
2022-10-17T22:19:09.651Z,6.63
2022-10-17T22:21:37.832Z,6.22
2022-10-17T22:24:09.042Z,6.63
2022-10-17T22:26:39.128Z,7.72
2022-10-17T22:29:08.134Z,6.40
2022-10-17T22:31:36.483Z,5.80
2022-10-17T22:34:05.563Z,7.00
2022-10-17T22:36:34.014Z,7.07
2022-10-17T22:39:02.218Z,7.15
2022-10-17T22:41:30.097Z,5.65
2022-10-17T22:43:59.154Z,5.40
2022-10-17T22:46:27.266Z,7.03
2022-10-17T22:48:55.127Z,6.95
2022-10-17T22:53:51.704Z,7.75
2022-10-17T22:56:21.510Z,5.90
2022-10-17T22:58:49.464Z,6.30
2022-10-17T23:01:20.185Z,6.57
2022-10-17T23:03:48.162Z,7.60
2022-10-17T23:06:16.169Z,7.85
2022-10-17T23:08:44.339Z,6.68
2022-10-17T23:11:12.092Z,4.80
2022-10-17T23:13:40.817Z,7.18
2022-10-17T23:16:09.421Z,5.95
2022-10-17T23:18:39.427Z,6.80
2022-10-17T23:21:08.133Z,6.88
2022-10-17T23:23:35.948Z,7.55
2022-10-17T23:26:08.615Z,6.55
2022-10-17T23:28:36.463Z,7.45
2022-10-17T23:31:15.707Z,8.07
2022-10-17T23:33:46.439Z,8.38
2022-10-17T23:36:15.374Z,8.13
2022-10-17T23:38:44.834Z,7.10
2022-10-17T23:41:13.184Z,10.23
2022-10-17T23:43:41.365Z,9.32
2022-10-17T23:46:09.795Z,9.93
2022-10-17T23:48:38.690Z,9.00
2022-10-17T23:51:08.808Z,8.45
2022-10-17T23:53:36.929Z,9.35
2022-10-17T23:56:05.546Z,10.48
2022-10-17T23:58:33.274Z,12.23
